createdAt,value
2019-03-08T00:01:13.567Z,6.80
2019-03-08T00:03:39.803Z,6.80
2019-03-08T00:06:06.122Z,6.80
2019-03-08T00:08:32.348Z,6.80
2019-03-08T00:10:58.865Z,6.80
2019-03-08T00:13:25.224Z,6.80
2019-03-08T00:15:51.390Z,6.80
2019-03-08T00:18:17.598Z,6.90
2019-03-08T00:20:43.783Z,6.80
2019-03-08T00:23:09.866Z,6.90
2019-03-08T00:25:36.213Z,6.90
2019-03-08T00:28:02.588Z,6.90
2019-03-08T00:30:28.835Z,6.90
2019-03-08T00:32:55.099Z,6.90
2019-03-08T00:35:21.593Z,7.00
2019-03-08T00:37:47.853Z,6.90
2019-03-08T00:40:14.153Z,7.00
2019-03-08T00:42:40.320Z,6.90
2019-03-08T00:45:12.137Z,6.90
2019-03-08T00:47:38.344Z,6.90
2019-03-08T00:50:06.749Z,6.90
2019-03-08T00:52:33.173Z,6.90
2019-03-08T00:54:59.443Z,7.00
2019-03-08T00:57:25.662Z,7.00
2019-03-08T00:59:51.826Z,7.00
2019-03-08T01:02:18.015Z,7.10
2019-03-08T01:04:44.345Z,7.20
2019-03-08T01:07:10.649Z,7.20
2019-03-08T01:09:36.770Z,7.20
2019-03-08T01:12:03.318Z,7.20
2019-03-08T01:14:29.475Z,7.10
2019-03-08T01:16:55.730Z,7.10
2019-03-08T01:19:21.926Z,7.10
2019-03-08T01:21:48.118Z,7.10
2019-03-08T01:24:14.327Z,7.10
2019-03-08T01:26:40.476Z,7.10
2019-03-08T01:29:06.666Z,7.10
2019-03-08T01:31:32.782Z,7.10
2019-03-08T01:33:59.120Z,7.10
2019-03-08T01:36:25.508Z,7.10
2019-03-08T01:38:51.649Z,7.10
2019-03-08T01:41:18.024Z,7.20
2019-03-08T01:43:44.104Z,7.20
2019-03-08T01:46:10.224Z,7.20
2019-03-08T01:48:36.530Z,7.10
2019-03-08T01:51:02.776Z,7.20
2019-03-08T01:53:28.982Z,7.20
2019-03-08T01:55:55.263Z,7.10
2019-03-08T01:58:21.804Z,7.20
2019-03-08T02:00:47.993Z,7.10
2019-03-08T02:03:14.172Z,7.20
2019-03-08T02:05:40.326Z,7.20
2019-03-08T02:08:06.496Z,7.10
2019-03-08T02:10:32.842Z,7.10
2019-03-08T02:12:59.025Z,7.10
2019-03-08T02:15:25.168Z,7.10
2019-03-08T02:17:51.460Z,7.10
2019-03-08T02:20:19.536Z,7.00
2019-03-08T02:22:45.846Z,7.00
2019-03-08T02:25:12.134Z,7.10
2019-03-08T02:27:38.236Z,7.00
2019-03-08T02:30:07.841Z,7.10
2019-03-08T02:32:34.048Z,7.10
2019-03-08T02:35:00.564Z,7.10
2019-03-08T02:37:26.820Z,7.10
2019-03-08T02:39:53.097Z,7.10
2019-03-08T02:42:19.278Z,7.10
2019-03-08T02:44:45.508Z,7.10
2019-03-08T02:47:11.726Z,7.10
2019-03-08T02:49:37.956Z,7.20
2019-03-08T02:52:04.562Z,7.10
2019-03-08T02:54:30.720Z,7.10
2019-03-08T02:56:56.800Z,7.10
2019-03-08T02:59:22.986Z,7.10
2019-03-08T03:01:49.258Z,7.20
2019-03-08T03:04:15.397Z,7.10
2019-03-08T03:06:41.617Z,7.10
2019-03-08T03:09:08.230Z,7.10
2019-03-08T03:11:34.412Z,7.10
2019-03-08T03:14:00.498Z,7.20
2019-03-08T03:16:26.617Z,7.20
2019-03-08T03:18:52.831Z,7.20
2019-03-08T03:21:19.001Z,7.20
2019-03-08T03:23:45.270Z,7.20
2019-03-08T03:26:11.477Z,7.20
2019-03-08T03:28:37.977Z,7.20
2019-03-08T03:31:04.076Z,7.30
2019-03-08T03:33:32.223Z,7.30
2019-03-08T03:35:58.403Z,7.20
2019-03-08T03:38:24.477Z,7.20
2019-03-08T03:40:50.695Z,7.30
2019-03-08T03:43:16.900Z,7.20
2019-03-08T03:45:43.415Z,7.30
2019-03-08T03:48:09.603Z,7.30
2019-03-08T03:50:35.695Z,7.40
2019-03-08T03:53:01.908Z,7.40
2019-03-08T03:55:28.095Z,7.50
2019-03-08T03:57:54.194Z,7.50
2019-03-08T04:00:21.586Z,7.50
2019-03-08T04:02:47.830Z,7.50
2019-03-08T04:05:14.142Z,7.50
2019-03-08T04:07:40.430Z,7.50
2019-03-08T04:10:09.818Z,7.60
2019-03-08T04:12:35.957Z,7.60
2019-03-08T04:15:04.157Z,7.50
2019-03-08T04:17:30.373Z,7.60
2019-03-08T04:19:56.601Z,7.60
2019-03-08T04:22:22.770Z,7.60
2019-03-08T04:24:49.001Z,7.60
2019-03-08T04:27:15.168Z,7.60
2019-03-08T04:29:41.294Z,7.60
2019-03-08T04:32:07.423Z,7.60
2019-03-08T04:34:33.615Z,7.60
2019-03-08T04:36:59.743Z,7.60
2019-03-08T04:39:26.269Z,7.50
2019-03-08T04:41:52.442Z,7.50
2019-03-08T04:44:18.511Z,7.50
2019-03-08T04:46:44.611Z,7.50
2019-03-08T04:49:10.694Z,7.50
2019-03-08T04:51:36.860Z,7.50
2019-03-08T04:54:03.270Z,7.50
2019-03-08T04:56:29.454Z,7.40
2019-03-08T04:58:55.875Z,7.40
2019-03-08T05:01:21.977Z,7.40
2019-03-08T05:03:48.117Z,7.40
2019-03-08T05:06:14.361Z,7.30
2019-03-08T05:08:40.675Z,7.30
2019-03-08T05:11:07.073Z,7.30
2019-03-08T05:13:33.222Z,7.30
2019-03-08T05:15:59.327Z,7.40
2019-03-08T05:18:25.426Z,7.30
2019-03-08T05:20:51.555Z,7.30
2019-03-08T05:23:17.786Z,7.20
2019-03-08T05:25:44.018Z,7.30
2019-03-08T05:28:10.913Z,7.20
2019-03-08T05:30:40.383Z,7.20
2019-03-08T05:33:06.642Z,7.20
2019-03-08T05:35:33.072Z,7.20
2019-03-08T05:37:59.318Z,7.20
2019-03-08T05:40:25.493Z,7.10
2019-03-08T05:42:51.564Z,7.10
2019-03-08T05:45:17.676Z,7.10
2019-03-08T05:47:43.757Z,7.10
2019-03-08T05:50:10.688Z,7.00
2019-03-08T05:52:36.863Z,7.00
2019-03-08T05:55:05.550Z,7.00
2019-03-08T05:57:31.677Z,7.00
2019-03-08T05:59:57.934Z,7.00
2019-03-08T06:02:24.142Z,7.00
2019-03-08T06:04:50.269Z,6.90
2019-03-08T06:07:16.528Z,6.90
2019-03-08T06:09:42.734Z,6.90
2019-03-08T06:12:09.166Z,6.90
2019-03-08T06:14:46.214Z,6.90
2019-03-08T06:17:12.561Z,7.00
2019-03-08T06:19:38.800Z,6.90
2019-03-08T06:22:06.713Z,6.90
2019-03-08T06:24:33.536Z,7.00
2019-03-08T06:26:59.638Z,6.90
2019-03-08T06:29:26.189Z,6.90
2019-03-08T06:31:52.374Z,6.90
2019-03-08T06:34:18.530Z,6.90
2019-03-08T06:36:44.653Z,6.90
2019-03-08T06:39:10.840Z,6.90
2019-03-08T06:41:36.920Z,6.80
2019-03-08T06:44:03.197Z,6.80
2019-03-08T06:46:29.322Z,6.80
2019-03-08T06:48:55.524Z,6.80
2019-03-08T06:51:21.776Z,6.80
2019-03-08T06:53:48.000Z,6.90
2019-03-08T06:56:14.222Z,6.90
2019-03-08T06:58:47.940Z,6.90
2019-03-08T07:01:15.447Z,6.90
2019-03-08T07:03:41.625Z,7.00
2019-03-08T07:06:08.286Z,7.10
2019-03-08T07:08:34.444Z,7.10
2019-03-08T07:11:00.547Z,7.10
2019-03-08T07:13:28.065Z,7.10
2019-03-08T07:15:54.501Z,7.20
2019-03-08T07:18:20.715Z,7.20
2019-03-08T07:20:51.893Z,7.30
2019-03-08T07:23:32.620Z,7.30
2019-03-08T07:26:00.779Z,7.30
2019-03-08T07:28:28.855Z,7.40
2019-03-08T07:31:13.898Z,7.30
2019-03-08T07:33:58.622Z,7.40
2019-03-08T07:36:43.324Z,7.40
2019-03-08T07:39:27.923Z,7.50
2019-03-08T07:41:58.809Z,7.50
2019-03-08T07:44:26.855Z,7.40
2019-03-08T07:47:03.916Z,7.50
2019-03-08T07:49:32.002Z,7.50
2019-03-08T07:52:16.872Z,7.50
2019-03-08T07:54:52.691Z,7.50
2019-03-08T07:57:33.274Z,7.50
2019-03-08T08:00:01.383Z,7.60
2019-03-08T08:02:38.244Z,7.60
2019-03-08T08:05:13.630Z,7.60
2019-03-08T08:07:41.785Z,7.70
2019-03-08T08:10:14.543Z,7.70
2019-03-08T08:12:55.057Z,7.90
2019-03-08T08:15:35.415Z,7.90
2019-03-08T08:18:15.675Z,7.90
2019-03-08T08:21:01.810Z,7.90
2019-03-08T08:23:34.308Z,8.00
2019-03-08T08:26:05.906Z,8.00
2019-03-08T08:28:52.337Z,8.10
2019-03-08T08:31:35.909Z,8.00
2019-03-08T08:34:10.365Z,8.00
2019-03-08T08:36:56.813Z,8.00
2019-03-08T08:39:27.791Z,7.90
2019-03-08T08:42:10.970Z,8.10
2019-03-08T08:44:39.183Z,8.10
2019-03-08T08:47:22.535Z,8.30
2019-03-08T08:49:54.517Z,8.40
2019-03-08T08:52:26.475Z,8.40
2019-03-08T08:55:06.783Z,8.40
2019-03-08T08:57:51.882Z,8.40
2019-03-08T09:00:20.561Z,8.40
2019-03-08T09:02:48.614Z,8.40
2019-03-08T09:05:22.474Z,8.40
2019-03-08T09:07:50.461Z,8.50
2019-03-08T09:10:18.484Z,8.60
2019-03-08T09:12:46.698Z,8.80
2019-03-08T09:15:15.209Z,8.70
2019-03-08T09:17:43.490Z,8.70
2019-03-08T09:20:11.559Z,9.10
2019-03-08T09:22:42.629Z,9.50
2019-03-08T09:25:10.815Z,9.90
2019-03-08T09:27:55.408Z,9.90
2019-03-08T09:30:26.365Z,9.50
2019-03-08T09:33:00.267Z,9.50
2019-03-08T09:35:46.619Z,9.20
2019-03-08T09:38:32.872Z,8.90
2019-03-08T09:41:15.977Z,8.80
2019-03-08T09:43:46.883Z,8.60
2019-03-08T09:46:20.866Z,8.70
2019-03-08T09:48:49.059Z,8.80
2019-03-08T09:51:34.058Z,8.90
2019-03-08T09:54:08.059Z,8.80
2019-03-08T09:56:39.092Z,8.80
2019-03-08T09:59:16.129Z,8.70
2019-03-08T10:01:50.031Z,8.70
2019-03-08T10:04:20.979Z,8.60
2019-03-08T10:06:49.039Z,8.70
2019-03-08T10:09:17.149Z,8.70
2019-03-08T10:12:01.953Z,8.60
2019-03-08T10:14:39.066Z,8.70
2019-03-08T10:17:09.934Z,8.80
2019-03-08T10:19:38.081Z,8.90
2019-03-08T10:22:06.207Z,9.00
2019-03-08T10:24:34.297Z,8.90
2019-03-08T10:27:08.515Z,9.00
2019-03-08T10:29:36.631Z,9.10
2019-03-08T10:32:17.216Z,9.10
2019-03-08T10:34:51.380Z,9.00
2019-03-08T10:37:36.226Z,9.00
2019-03-08T10:40:07.269Z,8.90
2019-03-08T10:42:35.512Z,9.00
2019-03-08T10:45:03.620Z,9.10
2019-03-08T10:47:31.666Z,9.00
2019-03-08T10:49:59.786Z,9.10
2019-03-08T10:52:33.873Z,9.20
2019-03-08T10:55:04.893Z,9.10
2019-03-08T10:57:42.159Z,9.10
2019-03-08T11:00:22.341Z,9.20
2019-03-08T11:03:07.494Z,9.30
2019-03-08T11:05:38.396Z,9.30
2019-03-08T11:08:06.514Z,9.30
2019-03-08T11:10:34.656Z,9.50
2019-03-08T11:13:19.701Z,9.50
2019-03-08T11:15:56.942Z,9.40
2019-03-08T11:18:27.850Z,9.30
2019-03-08T11:20:56.424Z,9.30
2019-03-08T11:23:39.735Z,9.40
2019-03-08T11:26:26.246Z,9.30
2019-03-08T11:29:03.714Z,9.30
2019-03-08T11:31:50.148Z,9.30
2019-03-08T11:34:28.604Z,9.30
2019-03-08T11:37:04.211Z,9.30
2019-03-08T11:39:35.335Z,9.30
2019-03-08T11:42:18.507Z,9.30
2019-03-08T11:44:46.596Z,9.30
2019-03-08T11:47:17.970Z,9.40
2019-03-08T11:50:04.109Z,9.30
2019-03-08T11:52:32.329Z,9.30
2019-03-08T11:55:12.305Z,9.30
2019-03-08T11:57:55.519Z,9.40
2019-03-08T12:00:40.390Z,9.30
2019-03-08T12:03:25.625Z,9.40
2019-03-08T12:06:01.118Z,9.40
2019-03-08T12:08:29.324Z,9.40
2019-03-08T12:11:28.263Z,9.60
2019-03-08T12:14:14.589Z,9.60
2019-03-08T12:16:48.528Z,9.50
2019-03-08T12:19:19.347Z,9.60
2019-03-08T12:22:04.131Z,9.50
2019-03-08T12:24:48.928Z,9.60
2019-03-08T12:27:19.827Z,9.60
2019-03-08T12:29:47.903Z,9.60
2019-03-08T12:32:23.571Z,9.70
2019-03-08T12:34:51.970Z,9.70
2019-03-08T12:37:26.415Z,9.70
2019-03-08T12:40:00.649Z,9.70
2019-03-08T12:42:28.811Z,9.70
2019-03-08T12:45:08.969Z,9.70
2019-03-08T12:47:45.969Z,9.50
2019-03-08T12:50:17.286Z,9.40
2019-03-08T12:53:02.262Z,9.40
2019-03-08T12:55:33.029Z,9.40
2019-03-08T12:58:01.155Z,9.30
2019-03-08T13:00:32.270Z,9.30
2019-03-08T13:03:00.680Z,9.20
2019-03-08T13:05:47.826Z,9.20
2019-03-08T13:08:15.817Z,9.00
2019-03-08T13:10:42.253Z,8.70
2019-03-08T13:13:08.438Z,8.40
2019-03-08T13:15:34.577Z,8.10
2019-03-08T13:18:00.988Z,7.80
2019-03-08T13:20:27.194Z,7.60
2019-03-08T13:22:53.421Z,7.60
2019-03-08T13:25:19.741Z,7.60
2019-03-08T13:27:45.838Z,7.70
2019-03-08T13:30:15.171Z,7.80
2019-03-08T13:32:41.364Z,8.00
2019-03-08T13:35:10.689Z,8.00
2019-03-08T13:37:36.926Z,7.90
2019-03-08T13:40:09.654Z,7.50
2019-03-08T13:42:35.783Z,7.30
2019-03-08T13:45:04.600Z,7.20
2019-03-08T13:47:30.805Z,7.00
2019-03-08T13:49:56.902Z,7.10
2019-03-08T13:52:23.007Z,7.30
2019-03-08T13:54:49.156Z,7.40
2019-03-08T13:57:15.521Z,7.50
2019-03-08T13:59:42.065Z,7.50
2019-03-08T14:02:08.235Z,7.50
2019-03-08T14:04:35.134Z,7.70
2019-03-08T14:07:01.321Z,8.30
2019-03-08T14:09:27.560Z,8.70
2019-03-08T14:11:53.923Z,9.20
2019-03-08T14:14:20.109Z,9.80
2019-03-08T14:16:46.629Z,10.20
2019-03-08T14:19:12.869Z,10.90
2019-03-08T14:21:39.151Z,11.10
2019-03-08T14:24:05.953Z,9.90
2019-03-08T14:26:33.627Z,9.70
2019-03-08T14:28:59.819Z,9.50
2019-03-08T14:31:27.992Z,9.30
2019-03-08T14:33:54.341Z,9.10
2019-03-08T14:36:20.672Z,8.90
2019-03-08T14:38:46.970Z,9.00
2019-03-08T14:41:15.084Z,9.00
2019-03-08T14:43:55.091Z,9.60
2019-03-08T14:46:32.279Z,10.00
2019-03-08T14:48:58.537Z,9.80
2019-03-08T14:51:26.134Z,9.40
2019-03-08T14:53:52.399Z,9.20
2019-03-08T14:56:18.717Z,9.00
2019-03-08T14:58:45.006Z,9.00
2019-03-08T15:01:11.662Z,8.90
2019-03-08T15:03:43.181Z,8.80
2019-03-08T15:06:05.988Z,8.80
2019-03-08T15:08:32.079Z,8.70
2019-03-08T15:10:58.151Z,8.80
2019-03-08T15:13:25.746Z,8.60
2019-03-08T15:15:57.979Z,8.30
2019-03-08T15:18:25.909Z,8.00
2019-03-08T15:20:50.578Z,7.90
2019-03-08T15:23:18.120Z,7.50
2019-03-08T15:25:45.314Z,7.30
2019-03-08T15:28:12.647Z,7.30
2019-03-08T15:30:38.991Z,7.30
2019-03-08T15:33:07.625Z,7.30
2019-03-08T15:35:34.198Z,7.20
2019-03-08T15:38:00.330Z,7.00
2019-03-08T15:40:26.650Z,7.00
2019-03-08T15:42:52.776Z,7.00
2019-03-08T15:45:19.722Z,7.00
2019-03-08T15:47:46.319Z,7.10
2019-03-08T15:50:15.651Z,7.30
2019-03-08T15:52:42.048Z,7.40
2019-03-08T15:55:08.322Z,7.70
2019-03-08T15:57:34.598Z,8.00
2019-03-08T16:00:01.008Z,8.20
2019-03-08T16:02:27.589Z,8.00
2019-03-08T16:04:53.893Z,8.00
2019-03-08T16:07:23.062Z,7.90
2019-03-08T16:09:48.135Z,7.50
2019-03-08T16:12:14.432Z,7.40
2019-03-08T16:14:40.510Z,7.20
2019-03-08T16:17:06.668Z,7.20
2019-03-08T16:19:32.866Z,7.10
2019-03-08T16:21:59.020Z,7.10
2019-03-08T16:24:31.259Z,7.00
2019-03-08T16:26:58.682Z,7.00
2019-03-08T16:29:23.997Z,7.10
2019-03-08T16:31:52.088Z,7.00
2019-03-08T16:34:18.302Z,6.90
2019-03-08T16:36:46.334Z,6.90
2019-03-08T16:39:17.431Z,6.70
2019-03-08T16:42:02.357Z,6.90
2019-03-08T16:44:47.361Z,7.10
2019-03-08T16:47:31.942Z,7.30
2019-03-08T16:50:11.869Z,7.20
2019-03-08T16:52:39.846Z,7.10
2019-03-08T16:55:22.989Z,7.10
2019-03-08T16:57:51.084Z,7.00
2019-03-08T17:00:28.574Z,7.00
2019-03-08T17:02:59.678Z,6.90
2019-03-08T17:05:27.832Z,6.80
2019-03-08T17:07:58.818Z,6.70
2019-03-08T17:10:43.940Z,6.80
2019-03-08T17:13:19.412Z,6.60
2019-03-08T17:16:04.352Z,6.40
2019-03-08T17:18:48.971Z,6.40
2019-03-08T17:21:22.818Z,6.40
2019-03-08T17:23:51.010Z,6.40
2019-03-08T17:26:31.329Z,6.40
2019-03-08T17:29:14.681Z,6.40
2019-03-08T17:31:59.515Z,6.40
2019-03-08T17:34:27.583Z,6.30
2019-03-08T17:36:58.373Z,6.30
2019-03-08T17:39:43.101Z,6.30
2019-03-08T17:42:11.464Z,6.40
2019-03-08T17:44:51.433Z,6.30
2019-03-08T17:47:28.569Z,6.20
2019-03-08T17:49:56.615Z,6.10
2019-03-08T17:52:30.667Z,6.20
2019-03-08T17:55:16.740Z,6.10
2019-03-08T17:57:47.638Z,6.20
2019-03-08T18:00:19.959Z,6.30
2019-03-08T18:03:04.629Z,6.20
2019-03-08T18:05:32.665Z,6.20
2019-03-08T18:08:12.615Z,6.10
2019-03-08T18:10:46.636Z,6.20
2019-03-08T18:13:30.002Z,6.20
2019-03-08T18:16:00.804Z,6.30
2019-03-08T18:18:28.881Z,6.30
2019-03-08T18:20:57.099Z,6.30
2019-03-08T18:23:40.267Z,6.30
2019-03-08T18:26:11.245Z,6.30
2019-03-08T18:28:42.619Z,6.30
2019-03-08T18:31:10.643Z,6.30
2019-03-08T18:33:47.654Z,6.30
2019-03-08T18:36:18.601Z,6.30
2019-03-08T18:39:02.059Z,6.20
2019-03-08T18:41:30.213Z,6.20
2019-03-08T18:44:14.932Z,6.20
2019-03-08T18:46:43.349Z,6.20
2019-03-08T18:49:26.487Z,6.20
2019-03-08T18:52:11.522Z,6.10
2019-03-08T18:54:42.286Z,6.00
2019-03-08T18:57:10.426Z,5.90
2019-03-08T18:59:38.609Z,5.80
2019-03-08T19:02:12.756Z,5.90
2019-03-08T19:04:52.863Z,5.90
2019-03-08T19:07:29.945Z,5.90
2019-03-08T19:10:14.590Z,5.80
2019-03-08T19:12:46.013Z,5.70
2019-03-08T19:15:31.385Z,5.60
2019-03-08T19:17:59.486Z,5.60
2019-03-08T19:20:30.757Z,5.60
2019-03-08T19:23:01.889Z,5.50
2019-03-08T19:25:33.016Z,5.50
2019-03-08T19:28:07.435Z,5.50
2019-03-08T19:30:41.676Z,5.40
2019-03-08T19:33:09.791Z,5.40
2019-03-08T19:35:37.849Z,5.40
2019-03-08T19:38:22.988Z,5.40
2019-03-08T19:40:59.958Z,5.50
2019-03-08T19:43:28.192Z,5.50
2019-03-08T19:45:58.971Z,5.40
2019-03-08T19:48:43.748Z,5.50
2019-03-08T19:51:21.578Z,5.50
2019-03-08T19:53:55.690Z,5.30
2019-03-08T19:56:29.905Z,5.40
2019-03-08T19:59:10.209Z,5.30
2019-03-08T20:01:38.385Z,5.10
2019-03-08T20:04:06.653Z,5.10
2019-03-08T20:06:49.888Z,5.20
2019-03-08T20:09:21.356Z,5.30
2019-03-08T20:11:50.080Z,5.20
2019-03-08T20:14:24.144Z,5.10
2019-03-08T20:16:58.252Z,5.10
2019-03-08T20:19:26.270Z,5.00
2019-03-08T20:21:54.312Z,5.10
2019-03-08T20:24:28.251Z,5.10
2019-03-08T20:26:59.006Z,5.00
2019-03-08T20:29:36.318Z,4.90
2019-03-08T20:32:21.641Z,4.80
2019-03-08T20:34:52.441Z,4.90
2019-03-08T20:37:26.596Z,4.90
2019-03-08T20:40:13.506Z,4.90
2019-03-08T20:42:47.722Z,4.90
2019-03-08T20:45:15.848Z,4.90
2019-03-08T20:47:42.002Z,4.90
2019-03-08T20:50:10.093Z,4.80
2019-03-08T20:52:36.234Z,4.90
2019-03-08T20:55:03.786Z,4.90
2019-03-08T20:57:30.007Z,4.80
2019-03-08T20:59:56.199Z,4.80
2019-03-08T21:02:22.467Z,4.90
2019-03-08T21:04:48.868Z,4.90
2019-03-08T21:07:15.024Z,4.70
2019-03-08T21:09:41.253Z,4.80
2019-03-08T21:12:07.539Z,4.70
2019-03-08T21:14:33.807Z,4.80
2019-03-08T21:17:00.009Z,4.70
2019-03-08T21:19:27.917Z,4.60
2019-03-08T21:21:54.540Z,4.50
2019-03-08T21:24:20.747Z,4.50
2019-03-08T21:26:46.895Z,4.50
2019-03-08T21:29:13.151Z,4.40
2019-03-08T21:31:39.321Z,4.50
2019-03-08T21:34:05.554Z,4.50
2019-03-08T21:36:32.163Z,4.60
2019-03-08T21:38:58.407Z,4.50
2019-03-08T21:41:24.588Z,4.50
2019-03-08T21:43:50.681Z,4.40
2019-03-08T21:46:16.878Z,4.50
2019-03-08T21:48:43.089Z,4.60
2019-03-08T21:51:09.215Z,4.50
2019-03-08T21:53:35.608Z,4.50
2019-03-08T21:56:02.414Z,4.60
2019-03-08T21:58:28.651Z,4.60
2019-03-08T22:00:54.833Z,4.70
2019-03-08T22:03:21.004Z,4.70
2019-03-08T22:05:47.111Z,4.60
2019-03-08T22:08:17.417Z,4.60
2019-03-08T22:10:43.325Z,4.60
2019-03-08T22:13:09.699Z,4.70
2019-03-08T22:15:36.229Z,4.60
2019-03-08T22:18:02.791Z,4.70
2019-03-08T22:20:28.977Z,4.90
2019-03-08T22:22:55.258Z,4.90
2019-03-08T22:25:22.901Z,5.00
2019-03-08T22:27:49.147Z,4.90
2019-03-08T22:30:16.730Z,4.90
2019-03-08T22:32:42.986Z,4.90
2019-03-08T22:35:09.349Z,4.90
2019-03-08T22:37:35.571Z,4.90
2019-03-08T22:40:01.936Z,4.90
2019-03-08T22:42:28.106Z,4.90
2019-03-08T22:44:54.212Z,4.90
2019-03-08T22:47:20.338Z,4.90
2019-03-08T22:49:46.524Z,4.90
2019-03-08T22:52:12.631Z,4.90
2019-03-08T22:54:38.766Z,4.90
2019-03-08T22:57:05.279Z,4.80
2019-03-08T22:59:31.487Z,4.80
2019-03-08T23:02:06.066Z,4.80
2019-03-08T23:04:32.208Z,4.80
2019-03-08T23:06:58.542Z,4.80
2019-03-08T23:09:24.927Z,4.80
2019-03-08T23:11:51.359Z,4.80
2019-03-08T23:14:17.557Z,4.80
2019-03-08T23:16:43.720Z,4.80
2019-03-08T23:19:09.891Z,4.80
2019-03-08T23:21:36.062Z,4.80
2019-03-08T23:24:02.458Z,4.80
2019-03-08T23:26:30.728Z,4.80
2019-03-08T23:28:58.796Z,4.90
2019-03-08T23:31:29.578Z,5.00
2019-03-08T23:33:55.697Z,5.00
2019-03-08T23:36:21.929Z,5.00
2019-03-08T23:38:48.118Z,5.00
2019-03-08T23:41:14.325Z,5.00
2019-03-08T23:43:40.467Z,5.10
2019-03-08T23:46:06.557Z,5.10
2019-03-08T23:48:32.866Z,5.00
2019-03-08T23:50:59.062Z,4.90
2019-03-08T23:53:25.222Z,4.90
2019-03-08T23:55:51.467Z,4.90
2019-03-08T23:58:17.884Z,4.90
